Time;durP1;ratioP1;P1;durP2;ratioP2;P2;SDS_P1;SDS_P2;PMS_P1;PMS_P2;Temp;Humidity;BMP_temperature;BMP_pressure;BME280_temperature;BME280_humidity;BME280_pressure;Samples;Min_cycle;Max_cycle;Signal;HPM_P1;HPM_P2
2024/02/23 00:00:05;;;;;;;0.30;0.20;;;12.90;96.60;;;;;;5107836;28;20488;-79
2024/02/23 00:02:31;;;;;;;0.30;0.20;;;12.90;96.70;;;;;;5107109;28;20211;-79
2024/02/23 00:04:57;;;;;;;0.30;0.20;;;12.90;96.40;;;;;;5107219;28;20760;-79
2024/02/23 00:07:23;;;;;;;0.30;0.20;;;12.90;96.30;;;;;;5107383;28;20426;-80
2024/02/23 00:09:49;;;;;;;0.30;0.20;;;12.90;96.20;;;;;;5123450;27;20424;-79
2024/02/23 00:12:14;;;;;;;0.30;0.20;;;12.90;96.20;;;;;;5123010;27;20675;-79
2024/02/23 00:14:40;;;;;;;0.30;0.20;;;12.90;96.20;;;;;;5107908;28;20180;-79
2024/02/23 00:17:06;;;;;;;0.30;0.20;;;12.90;96.00;;;;;;5107303;28;20255;-79
2024/02/23 00:19:32;;;;;;;0.30;0.20;;;13.00;95.90;;;;;;5107718;28;20762;-80
2024/02/23 00:21:59;;;;;;;0.30;0.20;;;13.00;95.90;;;;;;5106842;28;20444;-80
2024/02/23 00:24:25;;;;;;;0.30;0.20;;;13.00;95.90;;;;;;5107582;28;20452;-79
2024/02/23 00:26:51;;;;;;;0.30;0.20;;;13.00;95.80;;;;;;5106828;28;20396;-79
2024/02/23 00:29:17;;;;;;;0.30;0.20;;;13.00;95.50;;;;;;5122809;27;20448;-79
2024/02/23 00:31:45;;;;;;;0.30;0.20;;;13.00;95.40;;;;;;5107094;28;20168;-79
2024/02/23 00:34:13;;;;;;;0.30;0.20;;;13.00;95.30;;;;;;5106574;28;20530;-79
2024/02/23 00:36:42;;;;;;;1.90;1.80;;;13.00;95.30;;;;;;5106572;28;20397;-79
2024/02/23 00:39:08;;;;;;;0.30;0.20;;;13.10;95.10;;;;;;5107211;28;20455;-80
2024/02/23 00:41:34;;;;;;;0.30;0.20;;;13.10;95.10;;;;;;5107218;28;20943;-79
2024/02/23 00:44:00;;;;;;;1.70;1.60;;;13.10;94.90;;;;;;5106667;28;20510;-80
2024/02/23 00:46:26;;;;;;;0.30;0.20;;;13.10;94.90;;;;;;5122609;27;20811;-80
2024/02/23 00:48:51;;;;;;;0.30;0.20;;;13.20;94.90;;;;;;5106966;28;20461;-79
2024/02/23 00:51:17;;;;;;;0.30;0.20;;;13.20;94.60;;;;;;5106537;28;20630;-80
2024/02/23 00:53:43;;;;;;;1.13;1.13;;;13.20;94.70;;;;;;5107161;28;20210;-79
2024/02/23 00:56:08;;;;;;;0.57;0.57;;;13.20;94.70;;;;;;5106731;28;20663;-80
2024/02/23 00:58:34;;;;;;;0.30;0.20;;;13.20;94.70;;;;;;5106422;28;20207;-79
2024/02/23 01:01:00;;;;;;;0.30;0.20;;;13.20;94.80;;;;;;5106368;28;20183;-79
2024/02/23 01:03:26;;;;;;;0.30;0.20;;;13.20;94.80;;;;;;5106144;28;20219;-79
2024/02/23 01:05:51;;;;;;;0.50;0.50;;;13.20;94.70;;;;;;5106107;28;20919;-79
2024/02/23 01:08:17;;;;;;;0.40;0.40;;;13.20;94.70;;;;;;5106300;28;20222;-79
2024/02/23 01:10:43;;;;;;;0.30;0.20;;;13.20;94.80;;;;;;5122290;27;20318;-80
2024/02/23 01:13:09;;;;;;;0.30;0.20;;;13.20;94.80;;;;;;5106606;28;20239;-79
2024/02/23 01:15:34;;;;;;;0.30;0.20;;;13.20;94.80;;;;;;5122113;27;20176;-79
2024/02/23 01:18:00;;;;;;;0.30;0.20;;;13.10;94.80;;;;;;5121571;27;20203;-79
2024/02/23 01:20:26;;;;;;;0.30;0.20;;;13.10;94.90;;;;;;5122025;27;20178;-80
2024/02/23 01:22:51;;;;;;;0.30;0.20;;;13.10;94.90;;;;;;5106012;28;20219;-80
2024/02/23 01:25:17;;;;;;;0.30;0.20;;;13.10;95.00;;;;;;5121963;27;20413;-80
2024/02/23 01:27:46;;;;;;;5.60;3.50;;;13.10;95.00;;;;;;5121826;27;20559;-80
2024/02/23 01:30:12;;;;;;;0.30;0.20;;;13.20;95.10;;;;;;5121851;27;20414;-79
2024/02/23 01:32:38;;;;;;;0.30;0.20;;;13.10;95.00;;;;;;5121704;27;20913;-79
2024/02/23 01:35:05;;;;;;;0.30;0.20;;;13.10;95.10;;;;;;5121822;27;20507;-79
2024/02/23 01:37:31;;;;;;;0.30;0.30;;;13.10;95.20;;;;;;5105826;28;20408;-79
2024/02/23 01:39:58;;;;;;;1.93;1.83;;;13.10;95.40;;;;;;5122069;27;20517;-79
2024/02/23 01:42:24;;;;;;;0.30;0.20;;;13.10;95.20;;;;;;5121435;27;20286;-78
2024/02/23 01:44:49;;;;;;;0.30;0.20;;;13.10;95.50;;;;;;5106369;28;20424;-79
2024/02/23 01:47:15;;;;;;;0.30;0.20;;;13.00;95.60;;;;;;5105959;28;20896;-79
2024/02/23 01:49:42;;;;;;;0.30;0.20;;;13.10;95.70;;;;;;5106228;28;20540;-79
2024/02/23 01:52:08;;;;;;;0.30;0.20;;;13.10;95.90;;;;;;5105704;28;20396;-79
2024/02/23 01:54:34;;;;;;;0.30;0.20;;;13.10;96.00;;;;;;5105639;28;20995;-79
2024/02/23 01:57:00;;;;;;;0.30;0.20;;;13.00;96.00;;;;;;5121181;28;20461;-79
2024/02/23 01:59:27;;;;;;;0.30;0.20;;;13.00;96.00;;;;;;5105985;28;20419;-79
2024/02/23 02:01:53;;;;;;;0.30;0.20;;;13.00;96.00;;;;;;5105414;28;20463;-77
2024/02/23 02:04:19;;;;;;;0.30;0.20;;;13.00;96.20;;;;;;5105209;28;21009;-79
2024/02/23 02:06:49;;;;;;;0.30;0.20;;;13.10;96.30;;;;;;5105536;28;20437;-79
2024/02/23 02:09:15;;;;;;;0.30;0.20;;;13.10;96.30;;;;;;5104867;28;20462;-79
2024/02/23 02:11:47;;;;;;;0.30;0.20;;;13.10;96.20;;;;;;5105188;28;20543;-79
2024/02/23 02:14:13;;;;;;;5.00;4.80;;;13.00;96.30;;;;;;5106027;28;20596;-79
2024/02/23 02:16:39;;;;;;;0.30;0.20;;;13.10;96.50;;;;;;5105715;28;20420;-79
2024/02/23 02:19:05;;;;;;;0.30;0.20;;;13.10;96.30;;;;;;5105842;28;20455;-79
2024/02/23 02:21:32;;;;;;;0.30;0.20;;;13.10;96.00;;;;;;5121359;28;20409;-79
2024/02/23 02:23:57;;;;;;;0.30;0.20;;;13.10;95.90;;;;;;5105730;28;20876;-79
2024/02/23 02:26:23;;;;;;;1.70;1.60;;;13.10;96.40;;;;;;5120753;28;20525;-79
2024/02/23 02:28:49;;;;;;;1.13;1.13;;;13.10;96.20;;;;;;5105584;28;20222;-78
2024/02/23 02:31:14;;;;;;;3.07;1.63;;;13.00;96.20;;;;;;5105561;28;20446;-78
2024/02/23 02:33:41;;;;;;;0.30;0.20;;;12.90;96.30;;;;;;5105628;28;20672;-79
2024/02/23 02:36:07;;;;;;;0.30;0.20;;;12.90;96.40;;;;;;5120845;28;20171;-79
2024/02/23 02:38:35;;;;;;;0.30;0.20;;;12.80;96.40;;;;;;5121259;28;20451;-79
2024/02/23 02:41:01;;;;;;;0.30;0.30;;;12.80;96.60;;;;;;5105035;28;20416;-78
2024/02/23 02:43:27;;;;;;;0.30;0.20;;;12.80;96.60;;;;;;5105316;28;20471;-79
2024/02/23 02:45:53;;;;;;;0.30;0.20;;;12.80;96.60;;;;;;5105172;28;20423;-79
2024/02/23 02:48:19;;;;;;;0.30;0.20;;;12.70;97.10;;;;;;5105507;28;20448;-79
2024/02/23 02:50:45;;;;;;;0.30;0.20;;;12.70;96.80;;;;;;5105037;28;20970;-78
2024/02/23 02:53:11;;;;;;;0.30;0.20;;;12.60;97.10;;;;;;5105367;28;20451;-79
2024/02/23 02:55:41;;;;;;;0.30;0.20;;;12.50;97.40;;;;;;5120917;28;20203;-80
2024/02/23 02:58:06;;;;;;;0.30;0.20;;;12.50;97.60;;;;;;5122015;27;21171;-79
2024/02/23 03:00:32;;;;;;;9.53;8.93;;;12.60;97.80;;;;;;5108800;28;20422;-79
2024/02/23 03:02:58;;;;;;;0.30;0.20;;;12.50;97.80;;;;;;5108524;28;20242;-79
2024/02/23 03:05:23;;;;;;;0.30;0.20;;;12.50;98.20;;;;;;5108846;28;20413;-79
2024/02/23 03:07:49;;;;;;;0.37;0.30;;;12.60;98.40;;;;;;5124537;27;20317;-79
2024/02/23 03:10:15;;;;;;;0.30;0.20;;;12.60;98.40;;;;;;5107664;28;20566;-79
2024/02/23 03:12:41;;;;;;;0.30;0.20;;;12.60;98.60;;;;;;5123733;27;20557;-78
2024/02/23 03:15:08;;;;;;;0.30;0.20;;;12.70;98.80;;;;;;5124517;27;20577;-79
2024/02/23 03:17:34;;;;;;;0.30;0.20;;;12.70;99.00;;;;;;5108369;28;20424;-79
2024/02/23 03:20:00;;;;;;;0.30;0.20;;;12.70;99.20;;;;;;5124471;27;20439;-79
2024/02/23 03:22:26;;;;;;;0.40;0.40;;;12.70;99.40;;;;;;5124144;27;20272;-79
2024/02/23 03:24:52;;;;;;;0.30;0.20;;;12.70;99.50;;;;;;5108233;28;20408;-79
2024/02/23 03:27:18;;;;;;;0.30;0.20;;;12.80;99.70;;;;;;5108181;28;20454;-79
2024/02/23 03:29:44;;;;;;;3.80;2.70;;;12.80;99.90;;;;;;5108916;28;20253;-80
2024/02/23 03:32:10;;;;;;;0.30;0.20;;;12.80;99.90;;;;;;5124041;27;20444;-79
2024/02/23 03:34:36;;;;;;;0.30;0.20;;;12.70;99.90;;;;;;5108900;28;20274;-78
2024/02/23 03:37:02;;;;;;;0.30;0.20;;;12.70;99.90;;;;;;5107946;28;20779;-79
2024/02/23 03:39:28;;;;;;;0.30;0.20;;;12.70;99.90;;;;;;5108493;28;20937;-79
2024/02/23 03:41:54;;;;;;;0.30;0.20;;;12.70;99.90;;;;;;5107830;28;20474;-79
2024/02/23 03:44:20;;;;;;;0.30;0.20;;;12.70;99.90;;;;;;5123909;27;20441;-79
2024/02/23 03:46:46;;;;;;;0.30;0.20;;;12.70;99.90;;;;;;5123401;27;20232;-79
2024/02/23 03:49:12;;;;;;;0.30;0.20;;;12.70;99.90;;;;;;5123923;27;20191;-79
2024/02/23 03:51:39;;;;;;;0.30;0.20;;;12.70;99.90;;;;;;5123474;27;20228;-79
2024/02/23 03:54:05;;;;;;;0.30;0.20;;;12.70;99.90;;;;;;5107841;28;20605;-78
2024/02/23 03:56:41;;;;;;;0.30;0.20;;;12.70;99.90;;;;;;5123147;27;20419;-80
2024/02/23 03:59:10;;;;;;;0.30;0.20;;;12.70;99.90;;;;;;5123627;27;20500;-83
2024/02/23 04:01:37;;;;;;;0.30;0.20;;;12.70;99.90;;;;;;5107334;28;20412;-80
2024/02/23 04:04:04;;;;;;;0.30;0.20;;;12.60;99.60;;;;;;5107948;28;20432;-80
2024/02/23 04:06:29;;;;;;;0.30;0.20;;;12.60;99.40;;;;;;5123196;27;20401;-80
2024/02/23 04:08:55;;;;;;;0.30;0.20;;;12.60;99.30;;;;;;5123225;27;20460;-79
2024/02/23 04:11:20;;;;;;;0.30;0.20;;;12.60;99.30;;;;;;5106795;28;20179;-79
2024/02/23 04:13:46;;;;;;;0.47;0.47;;;12.50;99.20;;;;;;5106615;28;20192;-79
2024/02/23 04:16:12;;;;;;;0.30;0.20;;;12.50;99.20;;;;;;5107425;28;20260;-79
2024/02/23 04:18:37;;;;;;;0.30;0.20;;;12.50;99.20;;;;;;5107657;28;20211;-79
2024/02/23 04:21:03;;;;;;;0.30;0.20;;;12.50;99.60;;;;;;5122895;27;20175;-79
2024/02/23 04:23:29;;;;;;;0.30;0.20;;;12.50;99.60;;;;;;5123139;27;20669;-79
2024/02/23 04:25:55;;;;;;;1.80;1.27;;;12.30;99.30;;;;;;5122540;27;20423;-79
2024/02/23 04:28:20;;;;;;;1.17;1.17;;;12.20;99.70;;;;;;5107522;28;20207;-79
2024/02/23 04:30:46;;;;;;;0.30;0.20;;;12.10;99.90;;;;;;5122909;27;20301;-79
2024/02/23 04:33:12;;;;;;;11.53;2.37;;;12.10;99.90;;;;;;5122724;27;20688;-79
2024/02/23 04:35:38;;;;;;;0.30;0.20;;;12.10;99.90;;;;;;5107620;28;20734;-79
2024/02/23 04:38:04;;;;;;;0.30;0.20;;;12.10;99.90;;;;;;5106759;27;20203;-79
2024/02/23 04:40:29;;;;;;;1.70;1.70;;;12.20;99.90;;;;;;5107166;28;20900;-79
2024/02/23 04:42:55;;;;;;;0.30;0.30;;;12.20;99.90;;;;;;5106709;28;20718;-79
2024/02/23 04:45:21;;;;;;;0.30;0.20;;;12.20;99.90;;;;;;5122598;27;20654;-79
2024/02/23 04:47:48;;;;;;;1.33;1.23;;;12.20;99.90;;;;;;5106645;28;20207;-79
2024/02/23 04:50:13;;;;;;;0.50;0.50;;;12.30;99.90;;;;;;5107166;28;20585;-79
2024/02/23 04:52:39;;;;;;;0.30;0.20;;;12.20;99.90;;;;;;5106315;28;20516;-79
2024/02/23 04:55:05;;;;;;;0.30;0.30;;;12.30;99.90;;;;;;5106601;28;20392;-79
2024/02/23 04:57:32;;;;;;;0.30;0.20;;;12.30;99.90;;;;;;5122343;27;20580;-81
2024/02/23 04:59:57;;;;;;;0.40;0.40;;;12.30;99.90;;;;;;5106515;28;20915;-81
2024/02/23 05:02:23;;;;;;;2.57;2.47;;;12.30;99.90;;;;;;5105953;28;20454;-81
2024/02/23 05:04:49;;;;;;;0.30;0.20;;;12.40;99.90;;;;;;5105885;28;20563;-80
2024/02/23 05:07:14;;;;;;;0.30;0.20;;;12.40;99.90;;;;;;5104603;28;20228;-80
2024/02/23 05:09:40;;;;;;;0.30;0.20;;;12.40;99.90;;;;;;5106417;28;20180;-85
2024/02/23 05:12:08;;;;;;;0.60;0.60;;;12.40;99.90;;;;;;5106201;28;20228;-84
2024/02/23 05:14:33;;;;;;;0.30;0.20;;;12.40;99.90;;;;;;5104438;28;20204;-80
2024/02/23 05:16:59;;;;;;;11.87;10.87;;;12.40;99.90;;;;;;5102513;28;20982;-84
2024/02/23 05:19:24;;;;;;;0.30;0.20;;;12.40;99.90;;;;;;5106221;28;20204;-84
2024/02/23 05:21:50;;;;;;;0.30;0.20;;;12.40;99.90;;;;;;5102518;28;20272;-83
2024/02/23 05:24:16;;;;;;;0.30;0.20;;;12.40;99.90;;;;;;5102123;27;20212;-84
2024/02/23 05:26:43;;;;;;;0.30;0.30;;;12.40;99.90;;;;;;5090883;28;20422;-80
2024/02/23 05:29:09;;;;;;;4.63;4.43;;;12.40;99.90;;;;;;5106082;28;20291;-79
2024/02/23 05:31:51;;;;;;;0.30;0.20;;;12.40;99.90;;;;;;5103800;28;20420;-79
2024/02/23 05:34:18;;;;;;;0.30;0.30;;;12.40;99.90;;;;;;5104307;28;20500;-84
2024/02/23 05:36:45;;;;;;;0.30;0.30;;;12.40;99.90;;;;;;5105313;28;20419;-79
2024/02/23 05:39:17;;;;;;;0.90;0.90;;;12.40;99.90;;;;;;5104091;28;20452;-84
2024/02/23 05:41:43;;;;;;;0.30;0.30;;;12.30;99.90;;;;;;5104870;28;20517;-79
2024/02/23 05:44:10;;;;;;;0.30;0.20;;;12.20;99.90;;;;;;5103605;28;20968;-80
2024/02/23 05:46:36;;;;;;;0.87;0.87;;;12.10;99.90;;;;;;5104485;28;20905;-80
2024/02/23 05:49:04;;;;;;;1.35;1.25;;;12.10;99.90;;;;;;5113936;27;20546;-80
2024/02/23 05:51:30;;;;;;;0.30;0.20;;;12.10;99.90;;;;;;5083342;28;20456;-79
2024/02/23 05:53:56;;;;;;;0.30;0.20;;;12.10;99.90;;;;;;5092037;28;20604;-80
2024/02/23 05:56:23;;;;;;;0.83;0.83;;;12.10;99.90;;;;;;5102770;28;20279;-82
2024/02/23 05:58:49;;;;;;;0.93;0.93;;;12.10;99.90;;;;;;5103075;28;20473;-84
2024/02/23 06:01:15;;;;;;;0.30;0.30;;;12.10;99.90;;;;;;5103993;28;20420;-81
2024/02/23 06:03:41;;;;;;;1.27;1.27;;;12.20;99.90;;;;;;5104352;28;20490;-76
2024/02/23 06:06:09;;;;;;;0.30;0.20;;;12.10;99.90;;;;;;5104606;28;20569;-80
2024/02/23 06:08:36;;;;;;;0.30;0.20;;;12.10;99.90;;;;;;5113921;28;20211;-74
2024/02/23 06:11:03;;;;;;;0.30;0.20;;;12.00;99.90;;;;;;5103942;28;20274;-76
2024/02/23 06:13:29;;;;;;;1.70;1.70;;;12.00;99.90;;;;;;5103972;28;20481;-75
2024/02/23 06:15:55;;;;;;;0.30;0.30;;;12.00;99.90;;;;;;5104803;28;20416;-74
2024/02/23 06:18:20;;;;;;;0.30;0.20;;;12.00;99.90;;;;;;5099695;28;20826;-76
2024/02/23 06:20:49;;;;;;;0.30;0.20;;;12.00;99.90;;;;;;5102768;28;20276;-76
2024/02/23 06:23:15;;;;;;;0.30;0.20;;;12.00;99.90;;;;;;5103280;28;20273;-76
2024/02/23 06:25:41;;;;;;;0.30;0.20;;;12.00;99.90;;;;;;5103690;28;20192;-75
2024/02/23 06:28:06;;;;;;;0.30;0.20;;;12.00;99.90;;;;;;5102667;28;21091;-75
2024/02/23 06:30:32;;;;;;;0.80;0.80;;;12.00;99.90;;;;;;5102364;28;20192;-76
2024/02/23 06:32:58;;;;;;;2.63;2.53;;;12.00;99.90;;;;;;5120007;27;20196;-75
2024/02/23 06:35:23;;;;;;;0.40;0.37;;;11.90;99.90;;;;;;5105739;28;20209;-75
2024/02/23 06:37:49;;;;;;;0.30;0.20;;;11.90;99.90;;;;;;5105538;28;20223;-74
2024/02/23 06:40:15;;;;;;;0.30;0.20;;;11.90;99.90;;;;;;5104469;28;20587;-74
2024/02/23 06:42:40;;;;;;;0.30;0.20;;;11.80;99.90;;;;;;5106196;28;20224;-74
2024/02/23 06:45:07;;;;;;;0.30;0.20;;;11.80;99.90;;;;;;5106871;28;20490;-75
2024/02/23 06:47:33;;;;;;;0.30;0.30;;;11.70;99.90;;;;;;5106641;28;20198;-75
2024/02/23 06:50:00;;;;;;;0.30;0.20;;;11.70;99.90;;;;;;5104723;27;20184;-75
2024/02/23 06:52:26;;;;;;;0.30;0.20;;;11.70;99.90;;;;;;5105515;28;20613;-75
2024/02/23 06:54:52;;;;;;;0.30;0.20;;;11.70;99.90;;;;;;5105372;28;20439;-76
2024/02/23 06:57:18;;;;;;;0.30;0.20;;;11.80;99.90;;;;;;5107007;28;20362;-75
2024/02/23 06:59:43;;;;;;;0.30;0.20;;;11.80;99.90;;;;;;5101726;28;20515;-74
2024/02/23 07:02:09;;;;;;;0.30;0.20;;;11.80;99.90;;;;;;5106183;28;20475;-76
2024/02/23 07:04:35;;;;;;;0.30;0.20;;;11.80;99.90;;;;;;5121452;27;20809;-76
2024/02/23 07:07:07;;;;;;;0.30;0.30;;;11.70;99.90;;;;;;5104021;27;20317;-76
2024/02/23 07:09:33;;;;;;;0.30;0.20;;;11.80;99.90;;;;;;5088520;28;20443;-74
2024/02/23 07:11:59;;;;;;;0.30;0.20;;;11.70;99.90;;;;;;5100844;28;20232;-75
2024/02/23 07:14:25;;;;;;;0.67;0.67;;;11.70;99.90;;;;;;5101670;28;20451;-74
2024/02/23 07:16:52;;;;;;;3.37;3.27;;;11.60;99.90;;;;;;5099218;28;20434;-75
2024/02/23 07:19:19;;;;;;;0.80;0.80;;;11.70;99.90;;;;;;5099830;28;20466;-76
2024/02/23 07:21:45;;;;;;;0.40;0.30;;;11.70;99.90;;;;;;5086652;28;21074;-76
2024/02/23 07:24:11;;;;;;;0.30;0.20;;;11.80;99.90;;;;;;5098435;28;20215;-76
2024/02/23 07:26:37;;;;;;;0.30;0.20;;;11.80;99.90;;;;;;5098789;28;20420;-76
2024/02/23 07:29:03;;;;;;;0.30;0.20;;;11.80;99.90;;;;;;5098016;28;20463;-75
2024/02/23 07:31:29;;;;;;;0.30;0.20;;;11.80;99.90;;;;;;5099488;28;20180;-76
2024/02/23 07:33:54;;;;;;;0.30;0.20;;;11.80;99.90;;;;;;5102200;28;20470;-76
2024/02/23 07:36:20;;;;;;;0.30;0.20;;;11.90;99.90;;;;;;5098873;28;20207;-77
2024/02/23 07:38:47;;;;;;;0.30;0.20;;;11.90;99.90;;;;;;5108953;27;20725;-76
2024/02/23 07:41:14;;;;;;;0.30;0.30;;;12.00;99.90;;;;;;5103823;28;20375;-76
2024/02/23 07:43:40;;;;;;;0.30;0.20;;;12.00;99.90;;;;;;5105459;28;20471;-75
2024/02/23 07:46:08;;;;;;;1.13;1.03;;;12.00;99.90;;;;;;5104559;28;20451;-74
2024/02/23 07:48:35;;;;;;;0.30;0.20;;;12.00;99.90;;;;;;5104019;28;20208;-75
2024/02/23 07:51:01;;;;;;;0.30;0.20;;;12.00;99.90;;;;;;5108679;27;20420;-75
2024/02/23 07:53:27;;;;;;;0.30;0.20;;;12.00;99.90;;;;;;5104044;27;20466;-75
2024/02/23 07:55:53;;;;;;;1.33;1.33;;;12.10;99.90;;;;;;5112799;27;20444;-75
2024/02/23 07:58:19;;;;;;;0.30;0.20;;;12.10;99.90;;;;;;5106978;27;20617;-74
2024/02/23 08:00:44;;;;;;;0.30;0.20;;;12.10;99.90;;;;;;5098016;28;20248;-74
2024/02/23 08:03:10;;;;;;;0.30;0.20;;;12.10;99.90;;;;;;5100202;28;20437;-74
2024/02/23 08:05:36;;;;;;;0.30;0.30;;;12.20;99.90;;;;;;5108612;27;20656;-74
2024/02/23 08:08:02;;;;;;;0.30;0.20;;;12.20;99.90;;;;;;5099105;28;20474;-75
2024/02/23 08:10:28;;;;;;;0.33;0.30;;;12.20;99.90;;;;;;5099403;28;20180;-75
2024/02/23 08:12:53;;;;;;;1.80;0.77;;;12.30;99.90;;;;;;5097365;28;20478;-75
2024/02/23 08:15:19;;;;;;;0.30;0.20;;;12.40;99.90;;;;;;5102542;28;20186;-75
2024/02/23 08:17:45;;;;;;;0.30;0.20;;;12.40;99.90;;;;;;5100754;28;20223;-74
2024/02/23 08:20:11;;;;;;;0.33;0.20;;;12.40;99.90;;;;;;5100966;28;20187;-75
2024/02/23 08:22:36;;;;;;;0.30;0.20;;;12.40;99.90;;;;;;5101295;28;20216;-75
2024/02/23 08:25:02;;;;;;;0.30;0.30;;;12.50;99.90;;;;;;5100750;28;20241;-76
2024/02/23 08:27:28;;;;;;;0.67;0.67;;;12.60;99.90;;;;;;5101987;28;20625;-76
2024/02/23 08:29:54;;;;;;;0.30;0.20;;;12.60;99.90;;;;;;5098099;28;20552;-76
2024/02/23 08:32:20;;;;;;;0.30;0.20;;;12.60;99.90;;;;;;5092075;27;20180;-75
2024/02/23 08:34:46;;;;;;;0.30;0.20;;;12.70;99.90;;;;;;5101820;28;20573;-76
2024/02/23 08:37:12;;;;;;;0.30;0.20;;;12.80;99.90;;;;;;5108883;27;20448;-76
2024/02/23 08:39:38;;;;;;;0.60;0.60;;;12.80;99.90;;;;;;5098814;28;20431;-76
2024/02/23 08:42:04;;;;;;;0.30;0.20;;;12.90;99.90;;;;;;5102446;28;20468;-74
2024/02/23 08:44:29;;;;;;;0.30;0.20;;;12.90;99.90;;;;;;5101838;28;20206;-74
2024/02/23 08:46:55;;;;;;;0.30;0.20;;;13.00;99.90;;;;;;5104505;27;20427;-75
2024/02/23 08:49:20;;;;;;;0.30;0.20;;;13.00;99.90;;;;;;5100617;28;20195;-74
2024/02/23 08:51:46;;;;;;;0.30;0.20;;;13.10;99.90;;;;;;5102194;28;20269;-73
2024/02/23 08:54:12;;;;;;;0.50;0.50;;;13.10;99.90;;;;;;5097996;28;20226;-74
2024/02/23 08:56:39;;;;;;;0.30;0.20;;;13.10;99.90;;;;;;5098244;28;20586;-73
2024/02/23 08:59:05;;;;;;;0.30;0.20;;;13.10;99.90;;;;;;5097970;28;20204;-73
2024/02/23 09:01:30;;;;;;;0.30;0.20;;;13.20;99.90;;;;;;5099111;28;20423;-73
2024/02/23 09:03:56;;;;;;;0.40;0.30;;;13.20;99.90;;;;;;5098032;28;20223;-74
2024/02/23 09:06:22;;;;;;;0.30;0.20;;;13.10;99.90;;;;;;5098761;28;20220;-73
2024/02/23 09:08:47;;;;;;;0.30;0.20;;;13.10;99.90;;;;;;5098479;28;20487;-74
2024/02/23 09:11:15;;;;;;;0.30;0.20;;;13.20;99.90;;;;;;5098811;28;20180;-73
2024/02/23 09:13:42;;;;;;;0.60;0.60;;;13.20;99.90;;;;;;5099111;28;20218;-73
2024/02/23 09:16:08;;;;;;;0.30;0.20;;;13.20;99.90;;;;;;5094949;28;20437;-74
2024/02/23 09:18:34;;;;;;;0.30;0.30;;;13.20;99.90;;;;;;5095839;28;20784;-74
2024/02/23 09:21:00;;;;;;;0.30;0.20;;;13.30;99.90;;;;;;5095361;28;20959;-75
2024/02/23 09:23:26;;;;;;;0.33;0.30;;;13.30;99.90;;;;;;5093071;28;20475;-75
2024/02/23 09:25:52;;;;;;;1.47;1.00;;;13.40;99.90;;;;;;5094417;28;20310;-75
2024/02/23 09:28:18;;;;;;;0.30;0.20;;;13.40;99.90;;;;;;5091904;28;20538;-74
2024/02/23 09:30:43;;;;;;;0.30;0.20;;;13.50;99.90;;;;;;5083095;28;20184;-75
2024/02/23 09:33:09;;;;;;;0.30;0.20;;;13.50;99.90;;;;;;5095137;28;20693;-75
2024/02/23 09:35:35;;;;;;;0.60;0.60;;;13.60;99.90;;;;;;5090679;28;20195;-75
2024/02/23 09:38:01;;;;;;;1.67;1.60;;;13.70;99.90;;;;;;5088823;28;20467;-75
2024/02/23 09:40:26;;;;;;;0.30;0.20;;;13.70;99.90;;;;;;5083764;28;20264;-75
2024/02/23 09:42:58;;;;;;;0.30;0.20;;;13.80;99.90;;;;;;5090637;28;20272;-74
2024/02/23 09:45:26;;;;;;;0.30;0.30;;;13.80;99.90;;;;;;5098277;28;20188;-75
2024/02/23 09:47:54;;;;;;;1.43;1.37;;;14.00;99.90;;;;;;5094923;28;20438;-75
2024/02/23 09:50:22;;;;;;;0.30;0.20;;;14.00;99.90;;;;;;5103887;27;20435;-74
2024/02/23 09:52:50;;;;;;;0.30;0.20;;;14.00;99.90;;;;;;5093759;28;20463;-74
2024/02/23 09:55:21;;;;;;;0.40;0.30;;;14.10;99.90;;;;;;5093819;28;20460;-73
2024/02/23 09:57:51;;;;;;;0.40;0.30;;;14.20;99.90;;;;;;5107869;28;20441;-73
2024/02/23 10:00:17;;;;;;;0.53;0.53;;;14.30;99.90;;;;;;5093428;28;20447;-74
2024/02/23 10:02:44;;;;;;;0.30;0.20;;;14.30;99.90;;;;;;5095866;28;20483;-73
2024/02/23 10:05:13;;;;;;;0.30;0.20;;;14.40;99.90;;;;;;5092918;28;20469;-73
2024/02/23 10:07:40;;;;;;;0.40;0.40;;;14.50;99.90;;;;;;5094132;28;20883;-74
2024/02/23 10:10:10;;;;;;;1.53;1.43;;;14.50;99.90;;;;;;5096411;28;21284;-74
2024/02/23 10:12:36;;;;;;;12.80;11.90;;;14.50;99.90;;;;;;5103608;28;20541;-74
2024/02/23 10:15:06;;;;;;;1.63;1.63;;;14.50;99.90;;;;;;5101970;28;20476;-74
2024/02/23 10:17:32;;;;;;;0.30;0.20;;;14.50;99.90;;;;;;5099643;28;20786;-74
2024/02/23 10:19:58;;;;;;;0.30;0.20;;;14.60;99.90;;;;;;5104163;28;20430;-74
2024/02/23 10:22:30;;;;;;;1.13;1.03;;;14.60;99.90;;;;;;5099598;28;21210;-74
2024/02/23 10:24:55;;;;;;;0.30;0.20;;;14.60;99.90;;;;;;5096603;28;20408;-74
2024/02/23 10:27:22;;;;;;;0.30;0.20;;;14.70;99.90;;;;;;5111534;27;20435;-74
2024/02/23 10:29:50;;;;;;;0.30;0.20;;;14.70;99.90;;;;;;5103620;27;20834;-74
2024/02/23 10:32:19;;;;;;;0.30;0.20;;;14.70;99.90;;;;;;5098681;28;20716;-74
2024/02/23 10:34:47;;;;;;;0.30;0.20;;;14.70;99.90;;;;;;5096323;28;20496;-74
2024/02/23 10:37:13;;;;;;;2.50;2.40;;;14.70;99.90;;;;;;5109739;27;20427;-74
2024/02/23 10:39:40;;;;;;;1.70;1.60;;;14.70;99.90;;;;;;5101748;28;20754;-76
2024/02/23 10:42:09;;;;;;;0.30;0.30;;;14.80;99.90;;;;;;5103168;28;20271;-73
2024/02/23 10:44:35;;;;;;;0.50;0.47;;;14.80;99.90;;;;;;5102004;28;20781;-74
2024/02/23 10:47:02;;;;;;;0.30;0.20;;;14.80;99.90;;;;;;5099887;28;20556;-74
2024/02/23 10:49:29;;;;;;;1.47;1.47;;;14.90;99.90;;;;;;5101830;28;20452;-73
2024/02/23 10:51:56;;;;;;;0.30;0.20;;;14.90;99.90;;;;;;5099371;28;20822;-73
2024/02/23 10:54:22;;;;;;;0.30;0.20;;;14.90;99.90;;;;;;5096084;28;20916;-74
2024/02/23 10:56:50;;;;;;;0.30;0.30;;;14.90;99.90;;;;;;5105451;27;20998;-75
2024/02/23 10:59:18;;;;;;;0.30;0.20;;;14.90;99.90;;;;;;5099935;28;20986;-75
2024/02/23 11:01:56;;;;;;;0.30;0.30;;;14.80;99.90;;;;;;5098603;28;20937;-75
2024/02/23 11:04:23;;;;;;;0.40;0.40;;;14.80;99.90;;;;;;5096083;28;20518;-74
2024/02/23 11:06:54;;;;;;;0.30;0.30;;;14.80;99.90;;;;;;5098041;28;20424;-75
2024/02/23 11:09:24;;;;;;;0.30;0.20;;;14.80;99.90;;;;;;5097891;28;20451;-74
2024/02/23 11:11:55;;;;;;;4.10;3.50;;;14.70;99.90;;;;;;5096726;28;20479;-74
2024/02/23 11:14:34;;;;;;;6.53;2.93;;;14.70;99.90;;;;;;5098276;28;20481;-74
2024/02/23 11:17:01;;;;;;;0.30;0.20;;;14.80;99.90;;;;;;5099647;28;20423;-75
2024/02/23 11:19:34;;;;;;;1.17;0.77;;;14.80;99.90;;;;;;5105779;27;21046;-75
2024/02/23 11:22:01;;;;;;;1.53;1.27;;;14.80;99.90;;;;;;5086122;28;20461;-75
2024/02/23 11:24:31;;;;;;;1.53;1.43;;;14.80;99.90;;;;;;5076137;28;20490;-75
2024/02/23 11:27:00;;;;;;;0.40;0.37;;;14.80;99.90;;;;;;5109515;27;21053;-75
2024/02/23 11:29:39;;;;;;;0.50;0.50;;;14.90;99.90;;;;;;5100811;28;20479;-75
2024/02/23 11:32:15;;;;;;;2.20;2.10;;;14.80;99.90;;;;;;5099554;28;20705;-75
2024/02/23 11:34:41;;;;;;;0.40;0.40;;;14.80;99.90;;;;;;5101745;28;20435;-75
2024/02/23 11:37:11;;;;;;;0.87;0.87;;;14.80;99.90;;;;;;5101693;28;20501;-75
2024/02/23 11:39:39;;;;;;;0.30;0.20;;;14.80;99.90;;;;;;5100976;28;20191;-75
2024/02/23 11:42:06;;;;;;;0.30;0.20;;;14.80;99.90;;;;;;5100027;28;20464;-75
2024/02/23 11:44:32;;;;;;;0.30;0.20;;;14.80;99.90;;;;;;5096463;28;20999;-75
2024/02/23 11:46:59;;;;;;;0.30;0.20;;;14.70;99.90;;;;;;5095863;28;20430;-75
2024/02/23 11:49:29;;;;;;;0.30;0.20;;;14.70;99.90;;;;;;5103798;27;20298;-75
2024/02/23 11:51:55;;;;;;;0.40;0.30;;;14.70;99.90;;;;;;5097519;28;20419;-75
2024/02/23 11:54:22;;;;;;;1.70;1.07;;;14.70;99.90;;;;;;5096979;28;20447;-75
2024/02/23 11:56:49;;;;;;;0.30;0.20;;;14.80;99.90;;;;;;5094331;28;20458;-74
2024/02/23 11:59:15;;;;;;;0.30;0.20;;;14.80;99.90;;;;;;5117951;27;20447;-74
2024/02/23 12:01:41;;;;;;;0.30;0.20;;;14.90;99.90;;;;;;5095659;28;20411;-74
2024/02/23 12:04:07;;;;;;;0.30;0.20;;;14.90;99.90;;;;;;5091262;28;20444;-74
2024/02/23 12:06:34;;;;;;;0.30;0.20;;;15.00;99.90;;;;;;5093986;28;20416;-75
2024/02/23 12:09:01;;;;;;;0.30;0.20;;;15.10;99.90;;;;;;5107624;27;20576;-74
2024/02/23 12:11:27;;;;;;;0.50;0.50;;;15.10;99.90;;;;;;5086717;28;20464;-74
2024/02/23 12:13:55;;;;;;;0.30;0.30;;;15.10;99.90;;;;;;5086241;28;21191;-74
2024/02/23 12:16:22;;;;;;;0.57;0.57;;;15.20;99.90;;;;;;5086694;28;20447;-74
2024/02/23 12:18:55;;;;;;;0.30;0.20;;;15.20;99.90;;;;;;5085348;28;20460;-75
2024/02/23 12:21:23;;;;;;;0.30;0.20;;;15.20;99.90;;;;;;5085524;28;20442;-74
2024/02/23 12:23:50;;;;;;;0.30;0.20;;;15.20;99.90;;;;;;5087280;28;20483;-75
2024/02/23 12:26:17;;;;;;;0.30;0.27;;;15.20;99.90;;;;;;5088293;28;20776;-74
2024/02/23 12:28:44;;;;;;;1.33;0.70;;;15.20;99.90;;;;;;5089880;28;20455;-74
2024/02/23 12:31:10;;;;;;;0.30;0.20;;;15.20;99.90;;;;;;5087127;28;20568;-75
2024/02/23 12:33:37;;;;;;;0.30;0.30;;;15.20;99.90;;;;;;5088000;28;20467;-74
2024/02/23 12:36:04;;;;;;;2.33;2.13;;;15.20;99.90;;;;;;5089452;28;20423;-74
2024/02/23 12:38:30;;;;;;;0.30;0.20;;;15.20;99.90;;;;;;5091092;28;20542;-73
2024/02/23 12:40:57;;;;;;;0.30;0.20;;;15.10;99.90;;;;;;5091270;28;21117;-76